Flight Track Log - Related Links

Times and Time Zones

All times are in EDT time to prevent confusion due to time zone crossing. See the DAL3720 flight status page for this flight to view local times or setup timezone preferences in your user account.

Time Position Orientation Groundspeed Altitude Reporting Facility
EDT Latitude Longitude Course Direction KTS MPH feet Rate Location/Type
Thu 08:08:24 AM 46.8978 -96.8142 123° Southeast 130 150 2,800  Level Minneapolis Center
Thu 08:09:25 AM 46.8697 -96.7503 123° Southeast 177 204 4,800 1,869 Climbing Minneapolis Center
Thu 08:10:26 AM 46.8356 -96.6667 121° Southeast 243 280 6,600 2,098 Climbing Minneapolis Center
Thu 08:11:28 AM 46.7989 -96.5617 117° Southeast 275 316 9,100 2,488 Climbing Minneapolis Center
Thu 08:12:29 AM 46.7603 -96.4519 117° Southeast 289 333 11,700 2,361 Climbing Minneapolis Center
Thu 08:13:30 AM 46.7206 -96.3386 117° Southeast 298 343 13,900 1,951 Climbing Minneapolis Center
Thu 08:14:32 AM 46.6822 -96.2286 117° Southeast 313 360 15,700 1,659 Climbing Minneapolis Center
Thu 08:15:33 AM 46.6386 -96.1050 117° Southeast 327 376 17,300 1,366 Climbing Minneapolis Center
Thu 08:16:35 AM 46.5908 -95.9694 117° Southeast 357 411 18,500 829 Climbing Minneapolis Center
Thu 08:17:36 AM 46.5519 -95.8572 117° Southeast 372 428 19,000 244 Climbing Minneapolis Center
Thu 08:18:38 AM 46.4900 -95.6844 117° Southeast 399 459 19,000  Level Minneapolis Center
Thu 08:19:39 AM 46.4439 -95.5547 117° Southeast 403 464 19,000  Level Minneapolis Center
Thu 08:20:41 AM 46.3861 -95.3967 118° Southeast 400 460 19,000  Level Minneapolis Center
Thu 08:21:42 AM 46.3358 -95.2556 117° Southeast 398 458 19,000  Level Minneapolis Center
Thu 08:22:44 AM 46.2847 -95.1153 118° Southeast 396 456 19,000  Level Minneapolis Center
Thu 08:23:46 AM 46.2331 -94.9758 118° Southeast 395 455 19,000  Level Minneapolis Center
Thu 08:24:47 AM 46.1786 -94.8403 120° Southeast 394 453 19,000  Level Minneapolis Center
Thu 08:25:49 AM 46.1139 -94.7133 126° Southeast 393 452 19,000  Level Minneapolis Center
Thu 08:26:50 AM 46.0394 -94.5644 126° Southeast 389 448 19,000  Level Minneapolis Center
Thu 08:27:52 AM 45.9772 -94.4419 126° Southeast 385 443 19,000  Level Minneapolis Center
Thu 08:28:54 AM 45.9136 -94.3183 126° Southeast 385 443 19,000  Level Minneapolis Center
Thu 08:29:55 AM 45.8478 -94.1900 126° Southeast 391 450 19,000 -976 Level Minneapolis Center
Thu 08:30:57 AM 45.7806 -94.0578 126° Southeast 402 463 17,000 -1,984 Descending Minneapolis Center
Thu 08:31:59 AM 45.7142 -93.9283 126° Southeast 405 466 14,900 -2,195 Descending Minneapolis Center
Thu 08:33:00 AM 45.6356 -93.7769 127° Southeast 393 452 12,500 -1,902 Descending Minneapolis Center
Thu 08:34:02 AM 45.5744 -93.6569 126° Southeast 377 434 11,000 -732 Descending Minneapolis Center
Thu 08:35:03 AM 45.5000 -93.5614 138° Southeast 368 423 11,000 -488 Level Minneapolis Center
Thu 08:36:05 AM 45.4067 -93.5344 169° South 314 361 10,000 -1,210 Descending Minneapolis Center
Thu 08:37:07 AM 45.3342 -93.5139 169° South 269 310 8,500 -1,463 Descending Minneapolis Center
Thu 08:38:08 AM 45.2672 -93.4944 168° South 249 287 7,000 -732 Descending Minneapolis Center
Thu 08:39:10 AM 45.1983 -93.4969 181° South 231 266 7,000 -581 Level Minneapolis Center
Thu 08:40:12 AM 45.1428 -93.5217 197° South 215 247 5,800 -1,268 Descending Minneapolis Center
Thu 08:41:13 AM 45.0900 -93.5528 203° Southwest 208 239 4,400 -878 Descending Minneapolis Center
Thu 08:42:15 AM 45.0375 -93.5528 180° South 198 228 4,000 -194 Descending Minneapolis Center
Thu 08:43:17 AM 45.0072 -93.4856 122° Southeast 202 232 4,000  Level Minneapolis Center
Thu 08:44:18 AM 44.9839 -93.4322 122° Southeast 168 193 4,000 -341 Level Minneapolis Center
Thu 08:45:20 AM 44.9586 -93.3728 121° Southeast 164 189 3,300 -726 Descending Minneapolis Center
Thu 08:46:22 AM 44.9367 -93.3217 121° Southeast 156 180 2,500 -683 Descending Minneapolis Center
Thu 08:47:23 AM 44.9192 -93.2819 122° Southeast 125 144 1,900 -634 Descending Minneapolis Center
Thu 08:48:25 AM 44.9011 -93.2397 121° Southeast 117 135 1,200 -677 Descending Minneapolis Center
Thu 08:50:00 AM 44.8820 -93.2218 160° South  Level Estimated

Login

Don't have an account? Register now (free) for customized features, flight alerts, and more!